65CO weather

Wkr Airport
Fort Collins, Colorado, United States

Public forecast

Using degrees Fahrenheit for public forecast. Weather courtesy of forecast.io.

METAR (pilot weather report)

Closest report is Northern Colorado Regional Airport, 4.6 nm (8.5 km) SSW. Retrieved 2019/08/24 11:32 UTC (3 minutes ago):

KFNL 241132Z AUTO 09005KT 10SM SCT017 15/13 A3006 RMK AO2

TAF (pilot weather forecast)

Closest forecast is Rocky Mountain Metropolitan Airport, 37.4 nm (69.2 km) S. Retrieved 2019/08/24 06:42 UTC (5 hours ago):

TAF KBJC 240540Z 2406/2506 22007KT P6SM FEW120 BKN200 FM240800 28007KT P6SM FEW120 FM242100 05010KT P6SM SCT100 FM250100 30007KT P6SM FEW100